createdAt,value
2023-01-25T00:01:05.515Z,15.43
2023-01-25T00:03:33.525Z,14.80
2023-01-25T00:06:01.859Z,14.40
2023-01-25T00:08:30.064Z,14.27
2023-01-25T00:10:58.682Z,14.93
2023-01-25T00:13:26.846Z,14.03
2023-01-25T00:16:01.372Z,14.33
2023-01-25T00:18:29.246Z,15.03
2023-01-25T00:20:57.170Z,14.50
2023-01-25T00:23:25.046Z,14.30
2023-01-25T00:25:58.841Z,14.63
2023-01-25T00:28:26.958Z,15.13
2023-01-25T00:31:00.249Z,15.23
2023-01-25T00:33:45.472Z,15.00
2023-01-25T00:36:33.965Z,14.50
2023-01-25T00:39:02.223Z,13.87
2023-01-25T00:41:30.387Z,15.03
2023-01-25T00:43:58.945Z,14.17
2023-01-25T00:46:28.644Z,13.77
2023-01-25T00:48:57.530Z,14.03
2023-01-25T00:51:25.971Z,14.27
2023-01-25T00:53:54.221Z,14.57
2023-01-25T00:56:22.143Z,14.07
2023-01-25T00:58:50.306Z,14.00
2023-01-25T01:01:20.425Z,14.53
2023-01-25T01:03:52.855Z,14.03
2023-01-25T01:06:20.771Z,14.13
2023-01-25T01:08:48.577Z,14.67
2023-01-25T01:11:16.467Z,15.20
2023-01-25T01:13:44.362Z,15.53
2023-01-25T01:16:13.930Z,15.20
2023-01-25T01:18:44.509Z,15.00
2023-01-25T01:21:15.204Z,14.17
2023-01-25T01:23:43.199Z,15.43
2023-01-25T01:26:14.091Z,15.20
2023-01-25T01:28:43.927Z,16.73
2023-01-25T01:31:14.402Z,16.67
2023-01-25T01:33:50.528Z,15.73
2023-01-25T01:36:21.702Z,16.97
2023-01-25T01:38:49.886Z,17.47
2023-01-25T01:41:18.637Z,16.73
2023-01-25T01:43:48.053Z,17.17
2023-01-25T01:46:20.999Z,16.83
2023-01-25T01:48:53.385Z,16.77
2023-01-25T01:51:30.433Z,18.00
2023-01-25T01:54:03.810Z,16.03
2023-01-25T01:56:36.997Z,16.33
2023-01-25T01:59:08.192Z,17.53
2023-01-25T02:01:36.368Z,16.47
2023-01-25T02:04:07.994Z,17.17
2023-01-25T02:06:44.896Z,16.97
2023-01-25T02:09:16.890Z,16.53
2023-01-25T02:11:45.460Z,15.70
2023-01-25T02:14:14.430Z,17.33
2023-01-25T02:16:43.108Z,16.00
2023-01-25T02:19:17.157Z,15.37
2023-01-25T02:21:48.454Z,14.97
2023-01-25T02:24:21.729Z,14.60
2023-01-25T02:26:51.068Z,14.20
2023-01-25T02:29:23.141Z,15.37
2023-01-25T02:32:00.324Z,14.87
2023-01-25T02:34:29.275Z,14.83
2023-01-25T02:36:57.289Z,15.00
2023-01-25T02:39:26.767Z,14.27
2023-01-25T02:41:56.352Z,13.97
2023-01-25T02:44:28.350Z,14.17
2023-01-25T02:46:57.373Z,15.07
2023-01-25T02:49:26.056Z,14.00
2023-01-25T02:51:57.211Z,13.23
2023-01-25T02:54:26.862Z,12.63
2023-01-25T02:56:56.512Z,13.53
2023-01-25T02:59:26.955Z,13.07
2023-01-25T03:01:59.194Z,12.93
2023-01-25T03:04:30.018Z,13.03
2023-01-25T03:06:58.162Z,12.63
2023-01-25T03:09:26.724Z,12.70
2023-01-25T03:11:56.110Z,12.40
2023-01-25T03:14:24.581Z,11.80
2023-01-25T03:16:52.642Z,12.80
2023-01-25T03:19:23.619Z,11.50
2023-01-25T03:21:51.685Z,12.00
2023-01-25T03:24:20.359Z,12.33
2023-01-25T03:27:06.909Z,11.87
2023-01-25T03:30:06.282Z,11.83
2023-01-25T03:32:34.619Z,11.93
2023-01-25T03:35:07.908Z,12.03
2023-01-25T03:37:35.942Z,11.63
2023-01-25T03:40:06.401Z,11.27
2023-01-25T03:42:34.742Z,11.93
2023-01-25T03:45:06.822Z,11.53
2023-01-25T03:47:34.705Z,11.60
2023-01-25T03:50:03.539Z,11.23
2023-01-25T03:53:01.333Z,10.47
2023-01-25T03:55:33.216Z,11.27
2023-01-25T03:58:01.311Z,11.83
2023-01-25T04:00:30.506Z,10.80
2023-01-25T04:03:01.667Z,11.43
2023-01-25T04:05:30.898Z,10.63
2023-01-25T04:07:58.787Z,11.73
2023-01-25T04:10:35.132Z,11.87
2023-01-25T04:13:03.145Z,11.53
2023-01-25T04:15:32.370Z,11.37
2023-01-25T04:18:06.847Z,10.97
2023-01-25T04:20:34.822Z,11.97
2023-01-25T04:23:02.650Z,12.67
2023-01-25T04:25:37.039Z,11.57
2023-01-25T04:28:08.359Z,11.27
2023-01-25T04:30:37.669Z,10.70
2023-01-25T04:33:06.703Z,10.63
2023-01-25T04:35:35.742Z,10.97
2023-01-25T04:38:06.412Z,10.27
2023-01-25T04:40:38.705Z,10.57
2023-01-25T04:43:07.270Z,11.33
2023-01-25T04:45:37.462Z,10.80
2023-01-25T04:48:13.944Z,10.70
2023-01-25T04:50:49.251Z,11.80
2023-01-25T04:53:18.483Z,11.13
2023-01-25T04:55:48.227Z,11.10
2023-01-25T04:58:16.738Z,11.30
2023-01-25T05:00:46.672Z,12.60
2023-01-25T05:03:15.402Z,12.57
2023-01-25T05:05:47.965Z,12.33
2023-01-25T05:08:19.458Z,11.47
2023-01-25T05:10:47.550Z,11.57
2023-01-25T05:13:35.698Z,12.63
2023-01-25T05:16:25.263Z,11.90
2023-01-25T05:18:53.213Z,12.20
2023-01-25T05:21:44.983Z,13.03
2023-01-25T05:24:14.805Z,12.30
2023-01-25T05:27:01.237Z,12.80
2023-01-25T05:29:38.423Z,11.83
2023-01-25T05:32:11.492Z,12.47
2023-01-25T05:34:41.242Z,12.80
2023-01-25T05:37:11.583Z,11.87
2023-01-25T05:39:43.371Z,12.67
2023-01-25T05:42:13.758Z,13.10
2023-01-25T05:44:42.068Z,12.77
2023-01-25T05:47:14.320Z,13.00
2023-01-25T05:49:42.485Z,13.40
2023-01-25T05:52:15.538Z,13.17
2023-01-25T05:54:44.651Z,14.23
2023-01-25T05:57:15.671Z,13.83
2023-01-25T05:59:43.823Z,12.77
2023-01-25T06:02:15.961Z,13.27
2023-01-25T06:04:45.082Z,13.47
2023-01-25T06:07:14.285Z,12.67
2023-01-25T06:09:43.050Z,13.27
2023-01-25T06:12:10.998Z,12.87
2023-01-25T06:14:38.884Z,14.20
2023-01-25T06:17:07.265Z,13.93
2023-01-25T06:19:55.016Z,13.73
2023-01-25T06:22:27.775Z,13.90
2023-01-25T06:24:55.744Z,14.53
2023-01-25T06:27:23.538Z,14.70
2023-01-25T06:29:51.448Z,14.93
2023-01-25T06:32:19.321Z,14.23
2023-01-25T06:34:47.396Z,14.63
2023-01-25T06:37:22.925Z,14.50
2023-01-25T06:39:51.900Z,14.63
2023-01-25T06:42:19.725Z,15.57
2023-01-25T06:44:47.594Z,14.30
2023-01-25T06:47:15.387Z,14.37
2023-01-25T06:49:43.451Z,14.10
2023-01-25T06:52:11.606Z,15.77
2023-01-25T06:54:41.120Z,19.97
2023-01-25T06:57:10.194Z,13.33
2023-01-25T06:59:38.052Z,13.53
2023-01-25T07:02:06.075Z,13.83
2023-01-25T07:04:34.184Z,14.77
2023-01-25T07:07:02.003Z,15.07
2023-01-25T07:09:29.867Z,14.77
2023-01-25T07:11:59.000Z,15.57
2023-01-25T07:14:26.863Z,14.53
2023-01-25T07:16:54.871Z,14.60
2023-01-25T07:19:23.418Z,14.13
2023-01-25T07:26:53.441Z,17.40
2023-01-25T07:29:20.061Z,15.20
2023-01-25T07:31:46.824Z,15.53
2023-01-25T07:34:13.645Z,13.83
2023-01-25T07:36:40.870Z,14.47
2023-01-25T07:39:09.342Z,14.07
2023-01-25T07:41:35.987Z,15.37
2023-01-25T07:50:12.978Z,15.00
2023-01-25T07:52:40.935Z,14.90
2023-01-25T07:55:08.370Z,15.17
2023-01-25T07:57:34.995Z,14.70
2023-01-25T08:00:01.560Z,14.90
2023-01-25T08:02:28.319Z,14.90
2023-01-25T08:04:54.755Z,15.03
2023-01-25T08:10:24.236Z,15.70
2023-01-25T08:12:50.778Z,15.87
2023-01-25T08:15:17.337Z,15.90
2023-01-25T08:17:43.848Z,15.57
2023-01-25T08:20:11.826Z,16.27
2023-01-25T08:22:38.250Z,15.80
2023-01-25T08:25:05.595Z,16.80
2023-01-25T08:31:25.163Z,16.97
2023-01-25T08:33:52.083Z,18.10
2023-01-25T08:36:19.645Z,18.73
2023-01-25T08:38:47.169Z,19.60
2023-01-25T08:41:15.962Z,18.47
2023-01-25T08:43:43.113Z,18.63
2023-01-25T08:46:10.099Z,19.30
2023-01-25T08:52:04.785Z,14.80
2023-01-25T08:54:31.448Z,15.57
2023-01-25T08:56:57.951Z,15.20
2023-01-25T08:59:24.422Z,17.17
2023-01-25T09:01:50.810Z,17.40
2023-01-25T09:04:17.265Z,16.40
2023-01-25T09:06:43.866Z,16.83
2023-01-25T09:09:13.384Z,16.87
2023-01-25T09:16:43.538Z,18.67
2023-01-25T09:19:10.414Z,17.63
2023-01-25T09:21:36.851Z,17.30
2023-01-25T09:24:06.648Z,17.07
2023-01-25T09:26:36.893Z,17.27
2023-01-25T09:29:07.862Z,17.30
2023-01-25T09:31:36.147Z,18.20
2023-01-25T09:34:11.473Z,18.47
2023-01-25T09:36:42.868Z,17.17
2023-01-25T09:39:12.916Z,17.13
2023-01-25T09:42:21.351Z,18.43
2023-01-25T09:45:13.605Z,17.47
2023-01-25T09:47:48.467Z,16.60
2023-01-25T09:50:36.667Z,15.27
2023-01-25T09:53:17.256Z,16.23
2023-01-25T09:55:46.550Z,16.30
2023-01-25T09:58:18.938Z,16.90
2023-01-25T10:00:49.431Z,16.97
2023-01-25T10:03:23.483Z,16.60
2023-01-25T10:05:57.185Z,17.47
2023-01-25T10:08:32.292Z,18.00
2023-01-25T10:11:06.106Z,18.00
2023-01-25T10:13:33.985Z,17.97
2023-01-25T10:16:06.461Z,16.30
2023-01-25T10:18:43.981Z,16.20
2023-01-25T10:21:19.769Z,16.73
2023-01-25T10:24:27.853Z,17.37
2023-01-25T10:26:58.383Z,16.73
2023-01-25T10:29:29.220Z,18.07
2023-01-25T10:32:03.620Z,17.23
2023-01-25T10:34:54.314Z,16.00
2023-01-25T10:37:28.392Z,18.73
2023-01-25T10:40:02.471Z,17.50
2023-01-25T10:42:37.462Z,18.20
2023-01-25T10:45:12.004Z,18.07
2023-01-25T10:47:42.865Z,18.30
2023-01-25T10:50:31.826Z,17.57
2023-01-25T10:53:01.075Z,18.27
2023-01-25T10:55:29.237Z,18.63
2023-01-25T10:57:58.756Z,18.43
2023-01-25T11:00:30.683Z,18.43
2023-01-25T11:02:59.085Z,26.30
2023-01-25T11:05:33.550Z,21.60
2023-01-25T11:08:23.782Z,20.27
2023-01-25T11:10:52.978Z,17.73
2023-01-25T11:13:23.983Z,18.10
2023-01-25T11:15:54.851Z,19.37
2023-01-25T11:18:25.235Z,20.27
2023-01-25T11:21:14.804Z,19.30
2023-01-25T11:23:44.029Z,19.20
2023-01-25T11:26:17.331Z,18.77
2023-01-25T11:28:48.842Z,19.00
2023-01-25T11:31:19.563Z,19.27
2023-01-25T11:33:47.679Z,17.53
2023-01-25T11:36:23.711Z,18.17
2023-01-25T11:39:19.954Z,19.10
2023-01-25T11:42:04.255Z,19.60
2023-01-25T11:44:49.390Z,19.93
2023-01-25T11:47:27.711Z,20.83
2023-01-25T11:50:06.515Z,19.67
2023-01-25T11:52:48.649Z,20.87
2023-01-25T11:55:27.002Z,19.87
2023-01-25T11:58:12.542Z,20.33
2023-01-25T12:00:52.124Z,19.87
2023-01-25T12:03:52.127Z,21.10
2023-01-25T12:06:26.291Z,21.23
2023-01-25T12:09:15.812Z,21.97
2023-01-25T12:12:00.859Z,22.13
2023-01-25T12:14:41.622Z,22.63
2023-01-25T12:17:24.284Z,21.80
2023-01-25T12:20:10.558Z,24.50
2023-01-25T12:23:00.998Z,24.97
2023-01-25T12:25:39.458Z,22.63
2023-01-25T12:28:15.690Z,25.40
2023-01-25T12:30:51.281Z,24.20
2023-01-25T12:33:23.703Z,23.30
2023-01-25T12:35:58.742Z,24.90
2023-01-25T12:38:30.147Z,24.57
2023-01-25T12:41:01.254Z,25.50
2023-01-25T12:43:34.725Z,23.33
2023-01-25T12:46:13.063Z,24.83
2023-01-25T12:48:47.488Z,24.77
2023-01-25T12:51:17.961Z,24.47
2023-01-25T12:53:48.074Z,21.50
2023-01-25T12:56:30.453Z,24.73
2023-01-25T12:59:04.983Z,22.83
2023-01-25T13:01:38.903Z,22.37
2023-01-25T13:04:22.913Z,23.90
2023-01-25T13:06:58.172Z,23.67
2023-01-25T13:09:34.428Z,25.47
2023-01-25T13:12:05.124Z,23.10
2023-01-25T13:14:38.228Z,24.67
2023-01-25T13:17:21.972Z,22.87
2023-01-25T13:19:51.166Z,23.30
2023-01-25T13:23:00.961Z,23.70
2023-01-25T13:25:29.959Z,23.70
2023-01-25T13:28:34.278Z,24.13
2023-01-25T13:31:03.618Z,22.77
2023-01-25T13:33:35.610Z,23.27
2023-01-25T13:36:38.369Z,21.87
2023-01-25T13:39:39.616Z,22.93
2023-01-25T13:42:20.447Z,22.73
2023-01-25T13:44:51.918Z,22.57
2023-01-25T13:47:23.850Z,23.00
2023-01-25T13:49:57.731Z,23.47
2023-01-25T13:52:27.178Z,24.13
2023-01-25T13:54:57.410Z,22.23
2023-01-25T13:57:27.891Z,23.40
2023-01-25T14:00:10.077Z,23.77
2023-01-25T14:02:41.463Z,24.90
2023-01-25T14:05:19.834Z,23.23
2023-01-25T14:07:50.015Z,22.33
2023-01-25T14:10:23.460Z,24.47
2023-01-25T14:12:52.913Z,22.47
2023-01-25T14:15:23.567Z,23.30
2023-01-25T14:18:14.620Z,22.50
2023-01-25T14:20:43.384Z,22.57
2023-01-25T14:23:25.662Z,22.03
2023-01-25T14:25:54.912Z,20.17
2023-01-25T14:28:23.186Z,22.10
2023-01-25T14:30:56.228Z,22.03
2023-01-25T14:33:29.284Z,21.17
2023-01-25T14:36:16.074Z,22.10
2023-01-25T14:38:51.816Z,22.73
2023-01-25T14:41:26.747Z,21.17
2023-01-25T14:43:56.525Z,22.40
2023-01-25T14:46:29.936Z,22.13
2023-01-25T14:49:25.049Z,23.03
2023-01-25T14:51:58.966Z,22.43
2023-01-25T14:54:29.310Z,22.27
2023-01-25T14:57:00.516Z,20.23
2023-01-25T14:59:32.165Z,22.30
2023-01-25T15:02:02.945Z,21.77
2023-01-25T15:04:35.147Z,22.10
2023-01-25T15:07:16.629Z,21.33
2023-01-25T15:10:03.956Z,20.60
2023-01-25T15:12:32.836Z,23.40
2023-01-25T15:15:02.566Z,20.97
2023-01-25T15:17:44.277Z,22.03
2023-01-25T15:20:37.883Z,22.30
2023-01-25T15:23:21.248Z,22.20
2023-01-25T15:25:50.862Z,23.00
2023-01-25T15:28:18.734Z,21.90
2023-01-25T15:30:46.793Z,23.70
2023-01-25T15:33:20.463Z,22.07
2023-01-25T15:35:50.456Z,22.80
2023-01-25T15:38:18.865Z,22.40
2023-01-25T15:40:47.256Z,22.93
2023-01-25T15:43:16.873Z,22.97
2023-01-25T15:45:46.193Z,22.30
2023-01-25T15:48:17.359Z,22.50
2023-01-25T15:50:45.247Z,22.53
2023-01-25T15:53:16.516Z,22.60
2023-01-25T15:55:46.742Z,29.17
2023-01-25T15:58:21.767Z,22.90
2023-01-25T16:00:50.342Z,23.37
2023-01-25T16:03:20.135Z,23.63
2023-01-25T16:05:50.083Z,23.30
2023-01-25T16:08:21.879Z,22.20
2023-01-25T16:10:49.780Z,23.47
2023-01-25T16:13:17.572Z,23.27
2023-01-25T16:15:49.303Z,23.40
2023-01-25T16:18:17.296Z,26.10
2023-01-25T16:20:45.364Z,24.27
2023-01-25T16:23:13.700Z,22.63
2023-01-25T16:25:44.581Z,22.50
2023-01-25T16:28:15.136Z,24.23
2023-01-25T16:30:44.903Z,23.20
2023-01-25T16:33:13.117Z,23.20
2023-01-25T16:35:41.118Z,24.10
2023-01-25T16:38:11.892Z,25.17
2023-01-25T16:40:39.877Z,25.43
2023-01-25T16:43:09.033Z,24.87
2023-01-25T16:45:36.913Z,23.90
2023-01-25T16:48:04.948Z,23.67
2023-01-25T16:50:32.851Z,24.53
2023-01-25T16:53:00.717Z,24.17
2023-01-25T16:55:28.617Z,23.57
2023-01-25T16:57:56.458Z,24.70
2023-01-25T17:00:25.886Z,26.23
2023-01-25T17:03:00.029Z,24.37
2023-01-25T17:05:33.410Z,23.73
2023-01-25T17:08:01.441Z,24.00
2023-01-25T17:10:33.003Z,22.03
2023-01-25T17:13:01.059Z,23.03
2023-01-25T17:15:30.814Z,22.57
2023-01-25T17:17:58.741Z,25.47
2023-01-25T17:20:26.537Z,21.47
2023-01-25T17:22:54.395Z,22.87
2023-01-25T17:25:22.282Z,23.73
2023-01-25T17:27:50.203Z,23.73
2023-01-25T17:30:19.441Z,22.10
2023-01-25T17:32:48.705Z,23.03
2023-01-25T17:35:16.622Z,21.87
2023-01-25T17:37:44.589Z,21.57
2023-01-25T17:40:13.598Z,22.73
2023-01-25T17:42:41.590Z,23.37
2023-01-25T17:45:10.262Z,22.53
2023-01-25T17:47:38.365Z,22.83
2023-01-25T17:50:09.545Z,22.70
2023-01-25T17:52:37.675Z,22.13
2023-01-25T17:55:06.239Z,22.20
2023-01-25T17:57:36.707Z,22.70
2023-01-25T18:00:06.871Z,22.70
2023-01-25T18:02:43.578Z,19.37
2023-01-25T18:05:12.874Z,21.07
2023-01-25T18:07:40.686Z,20.03
2023-01-25T18:10:10.012Z,19.43
2023-01-25T18:12:38.133Z,25.67
2023-01-25T18:15:07.340Z,22.17
2023-01-25T18:17:35.786Z,22.73
2023-01-25T18:20:05.001Z,22.67
2023-01-25T18:22:34.280Z,21.10
2023-01-25T18:25:02.234Z,20.80
2023-01-25T18:27:30.457Z,19.17
2023-01-25T18:30:02.397Z,20.03
2023-01-25T18:32:32.678Z,18.93
2023-01-25T18:35:00.578Z,19.90
2023-01-25T18:37:33.417Z,20.03
2023-01-25T18:40:02.675Z,19.37
2023-01-25T18:42:30.572Z,20.07
2023-01-25T18:44:58.618Z,13.77
2023-01-25T18:47:26.576Z,17.83
2023-01-25T18:49:54.858Z,19.63
2023-01-25T18:52:24.065Z,18.87
2023-01-25T18:54:52.051Z,19.83
2023-01-25T18:57:21.654Z,19.03
2023-01-25T18:59:49.552Z,19.67
2023-01-25T19:02:18.286Z,20.20
2023-01-25T19:04:46.401Z,18.97
2023-01-25T19:07:14.585Z,17.10
2023-01-25T19:09:43.472Z,16.00
2023-01-25T19:12:11.516Z,18.73
2023-01-25T19:14:40.937Z,20.40
2023-01-25T19:17:08.849Z,20.57
2023-01-25T19:19:37.504Z,19.90
2023-01-25T19:22:05.425Z,17.83
2023-01-25T19:24:33.373Z,18.10
2023-01-25T19:27:01.281Z,19.63
2023-01-25T19:29:29.254Z,20.83
2023-01-25T19:31:58.408Z,21.27
2023-01-25T19:34:26.335Z,20.37
2023-01-25T19:36:54.220Z,21.33
2023-01-25T19:39:22.114Z,22.53
2023-01-25T19:41:52.588Z,21.63
2023-01-25T19:44:20.609Z,21.80
2023-01-25T19:46:48.821Z,22.87
2023-01-25T19:49:18.272Z,21.67
2023-01-25T19:51:52.728Z,23.13
2023-01-25T19:54:21.549Z,21.93
2023-01-25T19:56:50.554Z,26.10
2023-01-25T19:59:21.938Z,24.57
2023-01-25T20:01:49.907Z,23.33
2023-01-25T20:04:20.731Z,23.30
2023-01-25T20:06:49.594Z,24.03
2023-01-25T20:09:19.626Z,24.67
2023-01-25T20:11:47.955Z,25.67
2023-01-25T20:14:16.243Z,24.87
2023-01-25T20:16:44.322Z,27.17
2023-01-25T20:19:12.711Z,25.63
2023-01-25T20:21:42.149Z,25.00
2023-01-25T20:24:10.309Z,26.30
2023-01-25T20:26:42.494Z,25.23
2023-01-25T20:29:12.015Z,25.83
2023-01-25T20:31:41.177Z,26.87
2023-01-25T20:34:12.581Z,27.03
2023-01-25T20:36:43.086Z,27.80
2023-01-25T20:39:14.559Z,27.50
2023-01-25T20:41:42.633Z,25.87
2023-01-25T20:44:12.598Z,27.67
2023-01-25T20:46:42.061Z,26.77
2023-01-25T20:49:11.674Z,27.47
2023-01-25T20:51:39.834Z,27.57
2023-01-25T20:54:09.451Z,27.07
2023-01-25T20:56:37.686Z,26.40
2023-01-25T20:59:06.084Z,25.07
2023-01-25T21:01:36.861Z,21.27
2023-01-25T21:04:06.414Z,14.83
2023-01-25T21:06:35.341Z,16.87
2023-01-25T21:09:03.726Z,13.50
2023-01-25T21:11:33.202Z,13.63
2023-01-25T21:14:01.229Z,11.23
2023-01-25T21:16:29.189Z,12.10
2023-01-25T21:18:58.865Z,15.00
2023-01-25T21:21:28.709Z,12.67
2023-01-25T21:23:59.581Z,12.90
2023-01-25T21:26:29.628Z,13.97
2023-01-25T21:29:00.549Z,15.27
2023-01-25T21:31:30.778Z,14.23
2023-01-25T21:33:59.345Z,13.77
2023-01-25T21:36:27.640Z,14.10
2023-01-25T21:38:56.351Z,14.33
2023-01-25T21:41:25.998Z,14.83
2023-01-25T21:44:12.973Z,14.77
2023-01-25T21:46:49.239Z,13.97
2023-01-25T21:49:47.610Z,13.80
2023-01-25T21:52:16.238Z,14.90
2023-01-25T21:54:44.075Z,14.47
2023-01-25T21:57:12.429Z,13.67
2023-01-25T21:59:40.706Z,14.27
2023-01-25T22:02:13.905Z,13.33
2023-01-25T22:04:42.034Z,15.20
2023-01-25T22:07:10.753Z,16.03
2023-01-25T22:09:38.811Z,15.87
2023-01-25T22:12:06.878Z,16.67
2023-01-25T22:14:34.934Z,18.20
2023-01-25T22:17:03.219Z,17.27
2023-01-25T22:19:33.207Z,18.90
2023-01-25T22:22:01.225Z,17.57
2023-01-25T22:24:29.044Z,19.43
2023-01-25T22:27:04.542Z,19.67
2023-01-25T22:29:33.858Z,19.27
2023-01-25T22:32:02.147Z,19.07
2023-01-25T22:34:30.258Z,19.97
2023-01-25T22:36:59.527Z,18.63
2023-01-25T22:39:27.382Z,17.90
2023-01-25T22:41:55.705Z,18.77
2023-01-25T22:44:23.610Z,19.70
2023-01-25T22:46:52.723Z,18.97
2023-01-25T22:49:20.659Z,18.53
2023-01-25T22:51:48.769Z,18.83
2023-01-25T22:54:18.073Z,17.83
2023-01-25T22:56:45.943Z,17.43
2023-01-25T22:59:18.880Z,17.00
2023-01-25T23:01:47.077Z,17.17
2023-01-25T23:04:14.946Z,16.67
2023-01-25T23:06:42.834Z,16.57
2023-01-25T23:09:11.420Z,17.80
2023-01-25T23:11:40.784Z,18.47
2023-01-25T23:14:30.039Z,19.13
2023-01-25T23:17:18.680Z,18.97
2023-01-25T23:19:45.632Z,18.23
2023-01-25T23:22:13.498Z,18.07
2023-01-25T23:24:41.499Z,19.10
2023-01-25T23:27:12.390Z,19.23
2023-01-25T23:29:40.272Z,19.90
2023-01-25T23:32:08.115Z,19.80
2023-01-25T23:34:39.401Z,18.03
2023-01-25T23:37:08.227Z,20.20
2023-01-25T23:39:36.101Z,20.83
2023-01-25T23:42:04.249Z,19.90
2023-01-25T23:44:33.431Z,20.77
2023-01-25T23:47:01.541Z,21.50
2023-01-25T23:49:29.399Z,21.80
2023-01-25T23:51:57.434Z,21.20
2023-01-25T23:54:26.833Z,22.10
2023-01-25T23:56:55.133Z,21.97
2023-01-25T23:59:23.024Z,22.73
